Time;durP1;ratioP1;P1;durP2;ratioP2;P2;SDS_P1;SDS_P2;PMS_P1;PMS_P2;Temp;Humidity;BMP_temperature;BMP_pressure;BME280_temperature;BME280_humidity;BME280_pressure;Samples;Min_cycle;Max_cycle;Signal;HPM_P1;HPM_P2
2022/07/09 00:00:13;;;;;;;5.55;2.05;;;20.20;77.70;;;;;;5034803;28;20056;-74
2022/07/09 00:02:41;;;;;;;7.65;2.00;;;20.10;77.60;;;;;;5034860;28;20056;-74
2022/07/09 00:05:09;;;;;;;4.20;1.92;;;20.20;77.70;;;;;;5035780;28;20037;-74
2022/07/09 00:07:43;;;;;;;5.47;2.10;;;20.10;77.90;;;;;;5033616;28;20495;-74
2022/07/09 00:10:11;;;;;;;4.95;2.17;;;20.10;78.00;;;;;;5035642;28;20061;-74
2022/07/09 00:12:39;;;;;;;6.30;2.10;;;20.10;78.20;;;;;;5035645;28;20053;-74
2022/07/09 00:15:07;;;;;;;4.45;2.00;;;20.00;78.30;;;;;;5034620;28;20464;-74
2022/07/09 00:17:35;;;;;;;4.50;2.15;;;20.00;78.50;;;;;;5018366;28;20052;-74
2022/07/09 00:20:05;;;;;;;7.80;2.13;;;19.90;78.60;;;;;;5033408;28;20380;-74
2022/07/09 00:22:32;;;;;;;4.72;2.20;;;20.00;78.80;;;;;;5035339;28;20045;-74
2022/07/09 00:25:01;;;;;;;5.15;2.30;;;19.90;78.90;;;;;;5035483;28;20046;-74
2022/07/09 00:27:28;;;;;;;4.25;2.08;;;19.80;79.10;;;;;;5034202;28;20064;-74
2022/07/09 00:29:56;;;;;;;6.88;2.20;;;19.80;79.10;;;;;;5034574;28;20057;-74
2022/07/09 00:32:24;;;;;;;6.70;2.28;;;19.80;79.20;;;;;;5035113;28;20060;-74
2022/07/09 00:34:51;;;;;;;5.20;1.92;;;19.70;79.30;;;;;;5033310;28;20045;-74
2022/07/09 00:37:19;;;;;;;5.10;2.20;;;19.70;79.40;;;;;;5034012;28;20046;-74
2022/07/09 00:39:49;;;;;;;8.48;2.38;;;19.70;79.70;;;;;;5034369;28;20048;-74
2022/07/09 00:42:17;;;;;;;4.32;2.05;;;19.70;79.90;;;;;;5033000;28;20050;-74
2022/07/09 00:44:46;;;;;;;;;;;19.70;80.00;;;;;;5034510;28;20045;-74
2022/07/09 00:47:13;;;;;;;4.60;1.80;;;19.60;80.20;;;;;;5032853;28;19921;-74
2022/07/09 00:49:42;;;;;;;3.97;2.20;;;19.50;79.90;;;;;;5034908;28;20117;-74
2022/07/09 00:52:13;;;;;;;5.22;1.88;;;19.50;80.20;;;;;;5034844;28;20476;-74
2022/07/09 00:54:42;;;;;;;6.75;2.25;;;19.40;80.40;;;;;;5033125;28;20049;-74
2022/07/09 00:57:11;;;;;;;3.65;1.90;;;19.40;80.50;;;;;;5017427;28;20516;-74
2022/07/09 00:59:40;;;;;;;6.18;2.10;;;19.40;80.70;;;;;;5034875;28;20045;-74
2022/07/09 01:02:08;;;;;;;4.10;1.70;;;19.30;80.80;;;;;;5016320;28;20049;-74
2022/07/09 01:04:37;;;;;;;6.43;2.10;;;19.30;81.00;;;;;;5035057;28;20046;-74
2022/07/09 01:07:05;;;;;;;4.43;1.70;;;19.30;81.20;;;;;;5032738;28;20041;-74
2022/07/09 01:09:33;;;;;;;5.20;2.08;;;19.20;81.10;;;;;;5034751;28;20054;-74
2022/07/09 01:12:01;;;;;;;4.60;1.85;;;19.20;81.50;;;;;;5034574;28;20049;-74
2022/07/09 01:14:29;;;;;;;4.93;1.92;;;19.20;81.50;;;;;;5033881;28;20053;-74
2022/07/09 01:17:01;;;;;;;2.88;1.63;;;19.10;81.60;;;;;;5034924;28;20041;-74
2022/07/09 01:19:30;;;;;;;4.22;1.85;;;19.10;81.80;;;;;;5033988;28;20368;-74
2022/07/09 01:21:58;;;;;;;6.47;1.85;;;19.10;81.90;;;;;;5032637;28;20354;-74
2022/07/09 01:24:33;;;;;;;5.32;1.85;;;19.10;82.10;;;;;;5034745;28;20373;-74
2022/07/09 01:27:02;;;;;;;7.30;1.92;;;19.10;82.20;;;;;;5033427;28;20053;-74
2022/07/09 01:29:30;;;;;;;4.10;1.90;;;19.00;82.30;;;;;;5034034;28;20056;-73
2022/07/09 01:31:57;;;;;;;4.22;1.50;;;19.00;82.40;;;;;;5034632;28;20038;-74
2022/07/09 01:34:25;;;;;;;4.65;2.10;;;19.00;82.40;;;;;;5016936;28;20050;-74
2022/07/09 01:36:52;;;;;;;3.58;1.48;;;19.00;82.80;;;;;;5014754;28;20058;-74
2022/07/09 01:39:20;;;;;;;5.15;1.80;;;19.00;82.70;;;;;;4997600;28;20049;-74
2022/07/09 01:41:48;;;;;;;2.97;1.33;;;19.00;82.70;;;;;;5013606;28;20373;-74
2022/07/09 01:44:15;;;;;;;3.13;1.80;;;19.00;83.10;;;;;;5014958;28;20046;-74
2022/07/09 01:46:43;;;;;;;4.45;1.60;;;19.00;83.00;;;;;;5013779;28;20052;-74
2022/07/09 01:49:11;;;;;;;3.53;1.58;;;19.00;83.30;;;;;;5015909;28;20053;-73
2022/07/09 01:51:38;;;;;;;2.83;1.55;;;18.90;83.40;;;;;;5018356;28;20046;-73
2022/07/09 01:54:06;;;;;;;5.65;1.52;;;18.90;83.40;;;;;;5000276;28;20046;-74
2022/07/09 01:56:35;;;;;;;5.85;1.70;;;18.90;83.60;;;;;;5001453;28;20054;-74
2022/07/09 01:59:04;;;;;;;;;;;18.90;83.50;;;;;;5001632;28;20053;-73
2022/07/09 02:01:32;;;;;;;3.85;1.65;;;18.90;84.60;;;;;;5017167;28;19928;-74
2022/07/09 02:04:00;;;;;;;3.20;1.63;;;18.80;83.40;;;;;;5018166;28;20049;-74
2022/07/09 02:06:27;;;;;;;3.40;1.52;;;18.80;83.70;;;;;;5018612;28;20376;-74
2022/07/09 02:08:55;;;;;;;5.50;2.35;;;18.70;83.80;;;;;;5017100;28;20364;-74
2022/07/09 02:11:23;;;;;;;7.43;2.03;;;18.70;84.10;;;;;;5018154;28;20369;-74
2022/07/09 02:13:50;;;;;;;6.80;1.85;;;18.70;84.20;;;;;;4983790;28;20058;-74
2022/07/09 02:16:18;;;;;;;3.22;1.58;;;18.60;84.40;;;;;;5017986;28;20049;-74
2022/07/09 02:18:45;;;;;;;3.08;1.55;;;18.60;84.70;;;;;;5017791;28;20050;-74
2022/07/09 02:21:13;;;;;;;4.30;1.75;;;18.50;85.00;;;;;;5000112;28;20342;-74
2022/07/09 02:23:41;;;;;;;2.40;1.42;;;18.50;85.00;;;;;;5001303;28;20045;-74
2022/07/09 02:26:09;;;;;;;5.50;1.55;;;18.50;85.30;;;;;;5018035;28;20476;-74
2022/07/09 02:28:36;;;;;;;4.03;1.80;;;18.50;85.50;;;;;;5016832;28;20049;-74
2022/07/09 02:31:04;;;;;;;3.33;1.70;;;18.40;85.70;;;;;;5000575;28;20058;-74
2022/07/09 02:33:33;;;;;;;7.90;1.40;;;18.40;85.80;;;;;;5016388;28;20046;-74
2022/07/09 02:36:00;;;;;;;;;;;18.50;85.90;;;;;;5001384;28;20473;-74
2022/07/09 02:38:28;;;;;;;3.40;1.38;;;18.50;87.10;;;;;;5000227;28;19921;-74
2022/07/09 02:40:55;;;;;;;2.55;1.48;;;18.40;85.80;;;;;;5016418;28;20041;-74
2022/07/09 02:43:23;;;;;;;2.85;1.40;;;18.30;85.90;;;;;;5017875;28;20037;-73
2022/07/09 02:45:55;;;;;;;3.80;1.50;;;18.30;86.10;;;;;;5000131;28;20041;-74
2022/07/09 02:48:23;;;;;;;3.67;1.38;;;18.30;86.40;;;;;;4999303;28;20349;-74
2022/07/09 02:50:51;;;;;;;4.78;1.77;;;18.30;86.70;;;;;;5017496;28;20068;-74
2022/07/09 02:53:20;;;;;;;4.63;1.50;;;18.20;86.80;;;;;;4999343;28;20057;-74
2022/07/09 02:55:47;;;;;;;4.50;1.45;;;18.20;87.10;;;;;;5017427;28;20056;-74
2022/07/09 02:58:15;;;;;;;2.33;1.40;;;18.20;87.30;;;;;;5017025;28;20492;-74
2022/07/09 03:00:43;;;;;;;3.25;1.45;;;18.20;87.50;;;;;;5015993;28;20060;-73
2022/07/09 03:03:11;;;;;;;4.60;1.60;;;18.20;87.60;;;;;;5017583;28;20064;-74
2022/07/09 03:05:39;;;;;;;5.03;1.50;;;18.10;87.70;;;;;;5000305;28;20057;-74
2022/07/09 03:08:08;;;;;;;3.42;1.70;;;18.10;87.80;;;;;;4998891;28;20054;-73
2022/07/09 03:10:35;;;;;;;4.10;1.48;;;18.10;88.10;;;;;;5017179;28;20057;-74
2022/07/09 03:13:03;;;;;;;3.60;1.58;;;18.00;88.50;;;;;;5017675;28;20117;-74
2022/07/09 03:15:37;;;;;;;3.03;1.52;;;18.00;88.70;;;;;;4998727;28;20345;-74
2022/07/09 03:18:07;;;;;;;2.58;1.40;;;17.90;88.80;;;;;;5016772;28;20065;-74
2022/07/09 03:20:36;;;;;;;4.13;1.60;;;18.00;89.00;;;;;;5015692;28;20407;-74
2022/07/09 03:23:05;;;;;;;6.35;1.50;;;17.90;89.10;;;;;;4999649;28;20053;-74
2022/07/09 03:25:32;;;;;;;;;;;17.90;89.20;;;;;;5017027;28;20049;-74
2022/07/09 03:28:00;;;;;;;2.85;1.55;;;17.90;90.20;;;;;;5015839;28;19921;-74
2022/07/09 03:30:28;;;;;;;2.97;1.63;;;17.80;89.30;;;;;;5016871;28;20338;-74
2022/07/09 03:32:55;;;;;;;5.57;1.65;;;17.90;89.50;;;;;;5016601;28;20518;-74
2022/07/09 03:35:23;;;;;;;2.83;1.42;;;17.80;89.60;;;;;;5015606;28;20046;-74
2022/07/09 03:37:50;;;;;;;3.45;1.20;;;17.80;89.70;;;;;;5016383;28;20046;-74
2022/07/09 03:40:18;;;;;;;3.33;1.52;;;17.80;90.00;;;;;;5015247;28;20042;-74
2022/07/09 03:42:46;;;;;;;4.85;1.60;;;17.70;90.10;;;;;;5016674;28;20041;-74
2022/07/09 03:45:13;;;;;;;3.38;1.42;;;17.70;90.40;;;;;;4999285;28;20373;-74
2022/07/09 03:47:41;;;;;;;5.32;1.30;;;17.70;90.40;;;;;;5015246;28;20480;-73
2022/07/09 03:50:09;;;;;;;3.95;1.67;;;17.60;90.40;;;;;;5016500;28;20053;-73
2022/07/09 03:52:36;;;;;;;5.65;1.60;;;17.60;90.50;;;;;;5015229;28;20057;-74
2022/07/09 03:55:05;;;;;;;3.35;1.60;;;16.80;90.30;;;;;;5015309;28;20408;-74
2022/07/09 03:57:33;;;;;;;2.17;1.30;;;17.60;90.60;;;;;;4998823;28;20053;-74
2022/07/09 04:00:01;;;;;;;2.80;1.45;;;17.60;90.70;;;;;;5015006;28;20050;-74
2022/07/09 04:02:39;;;;;;;;;;;17.60;90.70;;;;;;5001145;28;20492;-74
2022/07/09 04:05:07;;;;;;;;;;;17.60;91.10;;;;;;5016374;28;19925;-74
2022/07/09 04:07:35;;;;;;;;;;;17.50;91.20;;;;;;5015309;28;19933;-74
2022/07/09 04:10:03;;;;;;;2.95;1.63;;;17.50;91.20;;;;;;5016319;28;19936;-74
2022/07/09 04:12:31;;;;;;;3.20;1.70;;;17.50;90.70;;;;;;5015414;28;20053;-74
2022/07/09 04:14:59;;;;;;;2.70;1.50;;;17.50;90.80;;;;;;4981582;28;20045;-74
2022/07/09 04:17:26;;;;;;;3.08;1.70;;;17.50;90.80;;;;;;5015851;28;20069;-74
2022/07/09 04:19:54;;;;;;;3.20;1.70;;;17.50;90.90;;;;;;4999015;28;20053;-74
2022/07/09 04:22:22;;;;;;;5.57;1.75;;;17.50;91.00;;;;;;4997888;28;20385;-74
2022/07/09 04:24:58;;;;;;;3.72;1.50;;;17.50;91.10;;;;;;4998784;28;20473;-74
2022/07/09 04:27:25;;;;;;;5.22;2.08;;;17.50;91.10;;;;;;5014615;28;20374;-74
2022/07/09 04:29:53;;;;;;;3.17;1.83;;;17.40;91.10;;;;;;4998452;28;20046;-74
2022/07/09 04:32:21;;;;;;;4.03;1.75;;;17.50;91.20;;;;;;5015481;28;20046;-74
2022/07/09 04:34:48;;;;;;;3.78;1.90;;;17.40;91.20;;;;;;5016186;28;20053;-73
2022/07/09 04:37:16;;;;;;;2.85;1.70;;;17.40;91.20;;;;;;5035137;28;20045;-74
2022/07/09 04:39:43;;;;;;;4.03;2.05;;;17.40;91.40;;;;;;5035132;28;20050;-74
2022/07/09 04:42:12;;;;;;;5.57;1.90;;;17.40;91.40;;;;;;5034248;28;20064;-74
2022/07/09 04:44:42;;;;;;;4.90;1.80;;;17.40;91.40;;;;;;5034970;28;20049;-74
2022/07/09 04:47:10;;;;;;;4.53;2.13;;;17.40;91.50;;;;;;5017087;28;20045;-74
2022/07/09 04:49:38;;;;;;;3.55;2.00;;;17.40;91.60;;;;;;5035336;28;20052;-74
2022/07/09 04:52:06;;;;;;;3.40;1.80;;;17.40;91.70;;;;;;5034366;28;20372;-74
2022/07/09 04:54:34;;;;;;;4.00;2.10;;;17.30;91.70;;;;;;5033093;28;20384;-74
2022/07/09 04:57:01;;;;;;;4.13;2.13;;;17.30;91.70;;;;;;5034752;28;20056;-74
2022/07/09 04:59:29;;;;;;;4.00;2.05;;;17.30;91.70;;;;;;5033823;28;20056;-74
2022/07/09 05:01:56;;;;;;;4.88;1.85;;;17.40;91.80;;;;;;5033779;28;20060;-74
2022/07/09 05:04:24;;;;;;;4.57;2.00;;;17.40;91.80;;;;;;5034211;28;20056;-74
2022/07/09 05:06:52;;;;;;;5.43;2.00;;;17.40;91.90;;;;;;5033917;28;20372;-73
2022/07/09 05:09:19;;;;;;;6.70;3.53;;;17.40;91.90;;;;;;5034014;28;20054;-74
2022/07/09 05:11:47;;;;;;;4.72;2.70;;;17.40;91.90;;;;;;5034890;28;20049;-74
2022/07/09 05:14:15;;;;;;;4.38;1.90;;;17.40;91.90;;;;;;5033139;28;20049;-74
2022/07/09 05:16:44;;;;;;;3.20;2.05;;;17.40;91.90;;;;;;5034764;28;20060;-74
2022/07/09 05:19:12;;;;;;;5.30;2.08;;;17.40;92.00;;;;;;5034574;28;20041;-74
2022/07/09 05:21:41;;;;;;;3.83;2.10;;;17.50;92.10;;;;;;5033467;28;20048;-74
2022/07/09 05:24:09;;;;;;;7.10;1.95;;;17.50;92.10;;;;;;5035902;28;20045;-73
2022/07/09 05:26:37;;;;;;;5.05;2.30;;;17.50;92.20;;;;;;5038745;28;20045;-74
2022/07/09 05:29:04;;;;;;;4.18;2.30;;;17.50;92.50;;;;;;5021274;28;20407;-73
2022/07/09 05:31:32;;;;;;;4.68;2.40;;;17.50;92.30;;;;;;5037986;28;20364;-74
2022/07/09 05:34:03;;;;;;;4.13;2.15;;;17.60;92.40;;;;;;5026203;28;20058;-74
2022/07/09 05:36:31;;;;;;;4.60;2.40;;;17.60;92.30;;;;;;5018882;28;20053;-74
2022/07/09 05:38:59;;;;;;;;;;;17.60;92.60;;;;;;5001794;28;20046;-74
2022/07/09 05:41:27;;;;;;;6.22;2.30;;;17.60;92.80;;;;;;5017931;28;20263;-74
2022/07/09 05:43:55;;;;;;;7.85;2.67;;;17.60;92.40;;;;;;5001804;28;20488;-74
2022/07/09 05:46:23;;;;;;;6.20;2.60;;;17.70;92.50;;;;;;5018486;28;20054;-74
2022/07/09 05:48:50;;;;;;;4.75;2.70;;;17.80;92.80;;;;;;5017629;28;20069;-74
2022/07/09 05:51:18;;;;;;;6.30;2.33;;;17.80;92.50;;;;;;5018613;28;20044;-74
2022/07/09 05:53:45;;;;;;;3.85;2.42;;;17.90;92.40;;;;;;5000680;28;20057;-73
2022/07/09 05:56:13;;;;;;;6.75;2.40;;;18.00;92.40;;;;;;5018695;28;20377;-74
2022/07/09 05:58:41;;;;;;;5.28;2.83;;;18.10;92.30;;;;;;5001554;28;20053;-74
2022/07/09 06:01:08;;;;;;;6.05;2.60;;;18.20;92.40;;;;;;5000074;28;20046;-73
2022/07/09 06:03:36;;;;;;;3.38;2.30;;;18.30;92.20;;;;;;5018225;28;20046;-74
2022/07/09 06:06:04;;;;;;;7.50;2.60;;;18.30;92.10;;;;;;5018389;28;20042;-74
2022/07/09 06:08:33;;;;;;;;;;;18.40;92.00;;;;;;5017425;28;20049;-74
2022/07/09 06:11:01;;;;;;;6.57;2.60;;;18.50;92.00;;;;;;5018158;28;20337;-74
2022/07/09 06:13:29;;;;;;;;;;;18.50;91.80;;;;;;5017704;28;20054;-74
2022/07/09 06:15:56;;;;;;;5.28;2.20;;;18.60;92.00;;;;;;5018037;28;19934;-73
2022/07/09 06:18:24;;;;;;;5.45;2.67;;;18.60;91.80;;;;;;5000799;28;20053;-74
2022/07/09 06:20:52;;;;;;;3.75;2.13;;;18.60;91.80;;;;;;5016744;28;20042;-74
2022/07/09 06:23:21;;;;;;;;;;;18.70;91.80;;;;;;5018284;28;20041;-73
2022/07/09 06:25:48;;;;;;;4.68;2.22;;;18.80;91.90;;;;;;5000886;28;19928;-74
2022/07/09 06:28:16;;;;;;;5.82;2.50;;;18.90;91.60;;;;;;5016720;28;20049;-74
2022/07/09 06:30:44;;;;;;;4.78;2.20;;;18.90;91.50;;;;;;5017880;28;20046;-73
2022/07/09 06:33:11;;;;;;;3.22;2.10;;;18.80;91.40;;;;;;5018216;28;20069;-74
2022/07/09 06:35:39;;;;;;;2.40;2.00;;;18.80;91.50;;;;;;5016056;28;20380;-74
2022/07/09 06:38:07;;;;;;;5.40;2.15;;;18.80;91.60;;;;;;5017941;28;20457;-74
2022/07/09 06:40:35;;;;;;;4.32;1.92;;;18.80;91.60;;;;;;4999353;28;20053;-74
2022/07/09 06:43:03;;;;;;;5.93;2.08;;;18.70;91.70;;;;;;5017799;28;20052;-74
2022/07/09 06:45:43;;;;;;;3.75;1.90;;;18.70;91.70;;;;;;5000726;28;20053;-73
2022/07/09 06:48:11;;;;;;;3.28;1.88;;;18.70;91.70;;;;;;4999414;28;20461;-74
2022/07/09 06:50:38;;;;;;;5.00;2.13;;;18.80;91.80;;;;;;5017349;28;20050;-74
2022/07/09 06:53:06;;;;;;;5.53;2.05;;;18.80;91.70;;;;;;5017698;28;20457;-74
2022/07/09 06:55:34;;;;;;;4.03;2.25;;;18.80;91.60;;;;;;4999061;28;20045;-74
2022/07/09 06:58:01;;;;;;;4.32;2.15;;;19.00;91.50;;;;;;5017365;28;20141;-74
2022/07/09 07:00:29;;;;;;;5.10;2.00;;;19.00;91.30;;;;;;5016449;28;20049;-74
2022/07/09 07:02:59;;;;;;;3.50;1.80;;;19.10;91.00;;;;;;5017681;28;20056;-74
2022/07/09 07:05:28;;;;;;;2.63;1.45;;;19.20;90.90;;;;;;4984108;28;20054;-74
2022/07/09 07:07:55;;;;;;;7.13;1.50;;;19.20;91.10;;;;;;5016030;28;20481;-74
2022/07/09 07:10:23;;;;;;;3.70;1.50;;;19.30;90.70;;;;;;4999863;28;20061;-73
2022/07/09 07:12:51;;;;;;;3.08;1.48;;;19.40;90.60;;;;;;5017434;28;20365;-73
2022/07/09 07:15:18;;;;;;;1.85;1.05;;;19.50;90.20;;;;;;4998994;28;20053;-73
2022/07/09 07:17:48;;;;;;;3.28;1.30;;;19.50;89.80;;;;;;4983591;28;20492;-74
2022/07/09 07:20:24;;;;;;;2.03;1.30;;;19.50;89.90;;;;;;5015657;28;20042;-74
2022/07/09 07:22:52;;;;;;;1.70;1.00;;;19.50;89.90;;;;;;5016687;28;20038;-74
2022/07/09 07:25:20;;;;;;;2.67;1.10;;;19.50;89.80;;;;;;5000237;28;20049;-73
2022/07/09 07:27:47;;;;;;;2.03;0.93;;;19.40;89.50;;;;;;5015973;28;20477;-74
2022/07/09 07:30:15;;;;;;;2.97;1.00;;;19.50;89.30;;;;;;5016864;28;20054;-74
2022/07/09 07:32:43;;;;;;;1.58;0.90;;;19.50;88.90;;;;;;4983046;28;20050;-74
2022/07/09 07:35:11;;;;;;;2.38;0.90;;;19.50;88.50;;;;;;5015558;28;20045;-73
2022/07/09 07:37:38;;;;;;;2.30;0.90;;;19.50;88.50;;;;;;5015854;28;20053;-74
2022/07/09 07:40:10;;;;;;;2.60;0.93;;;19.50;88.30;;;;;;4998220;28;20049;-74
2022/07/09 07:42:38;;;;;;;2.08;1.00;;;19.60;88.10;;;;;;5016362;28;20050;-74
2022/07/09 07:45:06;;;;;;;2.08;0.93;;;19.70;87.90;;;;;;5016672;28;20038;-74
2022/07/09 07:47:33;;;;;;;;;;;19.80;87.20;;;;;;5014744;28;20053;-74
2022/07/09 07:50:01;;;;;;;2.40;0.95;;;19.80;86.80;;;;;;4999029;28;20276;-74
2022/07/09 07:52:29;;;;;;;1.48;0.77;;;19.90;87.20;;;;;;5016616;28;20050;-74
2022/07/09 07:54:57;;;;;;;2.72;1.02;;;20.00;86.70;;;;;;4997998;28;20038;-74
2022/07/09 07:57:24;;;;;;;1.52;0.75;;;19.90;86.40;;;;;;5016096;28;20046;-74
2022/07/09 07:59:52;;;;;;;1.75;0.93;;;19.90;86.70;;;;;;5015977;28;20049;-74
2022/07/09 08:02:19;;;;;;;2.40;0.93;;;20.00;87.10;;;;;;5015095;28;20046;-74
2022/07/09 08:04:47;;;;;;;2.30;0.80;;;20.00;87.10;;;;;;5016696;28;20060;-74
2022/07/09 08:07:15;;;;;;;1.90;0.80;;;20.10;86.60;;;;;;4981585;28;20046;-74
2022/07/09 08:09:42;;;;;;;1.50;0.75;;;20.10;85.60;;;;;;4982961;28;20056;-74
2022/07/09 08:12:10;;;;;;;1.83;0.73;;;20.10;86.00;;;;;;4998777;28;20113;-74
2022/07/09 08:14:38;;;;;;;1.95;0.60;;;20.20;85.50;;;;;;5014833;28;20061;-73
2022/07/09 08:17:05;;;;;;;2.85;0.90;;;20.20;85.00;;;;;;5015582;28;20053;-74
2022/07/09 08:19:33;;;;;;;1.83;0.90;;;20.20;84.90;;;;;;5015579;28;20129;-74
2022/07/09 08:22:01;;;;;;;1.80;0.80;;;20.30;84.90;;;;;;4997213;28;20041;-74
2022/07/09 08:24:29;;;;;;;2.13;0.80;;;20.30;84.70;;;;;;4998510;28;20038;-74
2022/07/09 08:26:58;;;;;;;1.45;0.80;;;20.40;84.20;;;;;;4997416;28;20282;-74
2022/07/09 08:29:26;;;;;;;2.05;0.75;;;20.50;84.50;;;;;;5015905;28;20061;-74
2022/07/09 08:31:54;;;;;;;1.45;0.60;;;20.60;84.50;;;;;;5015575;28;20045;-74
2022/07/09 08:34:23;;;;;;;1.15;0.50;;;20.60;83.60;;;;;;5005269;28;20064;-73
2022/07/09 08:36:50;;;;;;;2.67;0.70;;;20.70;82.80;;;;;;5034600;28;20045;-74
2022/07/09 08:39:18;;;;;;;0.77;0.50;;;20.80;82.80;;;;;;5034995;28;20064;-74
2022/07/09 08:41:46;;;;;;;1.83;0.60;;;20.80;82.40;;;;;;5034022;28;20060;-74
2022/07/09 08:44:17;;;;;;;2.70;0.60;;;20.90;82.60;;;;;;5034949;28;20056;-74
2022/07/09 08:46:45;;;;;;;1.35;0.70;;;21.00;81.90;;;;;;5033191;28;20045;-74
2022/07/09 08:49:15;;;;;;;1.40;0.70;;;21.00;80.90;;;;;;5033903;28;20060;-74
2022/07/09 08:51:44;;;;;;;2.13;0.70;;;21.10;81.40;;;;;;5035221;28;20049;-74
2022/07/09 08:54:13;;;;;;;3.08;0.73;;;21.10;81.10;;;;;;5033880;28;20046;-74
2022/07/09 08:56:41;;;;;;;0.70;0.40;;;21.20;81.10;;;;;;5033885;28;20468;-74
2022/07/09 08:59:08;;;;;;;1.02;0.50;;;21.20;80.80;;;;;;5034535;28;20064;-74
2022/07/09 09:01:36;;;;;;;3.35;0.68;;;21.40;80.20;;;;;;5032988;28;20052;-74
2022/07/09 09:04:05;;;;;;;3.00;0.80;;;21.40;80.10;;;;;;5034859;28;20056;-74
2022/07/09 09:06:38;;;;;;;1.60;0.80;;;21.30;80.10;;;;;;5033925;28;20041;-73
2022/07/09 09:09:17;;;;;;;3.05;0.80;;;21.30;80.40;;;;;;5033803;28;20063;-74
2022/07/09 09:11:50;;;;;;;2.60;0.80;;;21.30;80.30;;;;;;5017869;28;20495;-74
2022/07/09 09:14:22;;;;;;;2.55;0.80;;;21.20;80.60;;;;;;5033798;28;20046;-74
2022/07/09 09:16:50;;;;;;;3.58;1.00;;;21.20;80.90;;;;;;5033881;28;20426;-74
2022/07/09 09:19:17;;;;;;;;;;;21.10;81.00;;;;;;5035303;28;20053;-74
2022/07/09 09:21:53;;;;;;;2.35;0.73;;;21.00;81.10;;;;;;5033309;28;19936;-74
2022/07/09 09:24:26;;;;;;;3.22;0.70;;;21.00;80.70;;;;;;5034915;28;20050;-74
2022/07/09 09:26:58;;;;;;;2.15;0.75;;;20.90;80.60;;;;;;5033483;28;20042;-73
2022/07/09 09:29:26;;;;;;;2.65;0.77;;;21.00;81.00;;;;;;5034697;28;20056;-74
2022/07/09 09:31:55;;;;;;;5.47;0.85;;;21.10;81.20;;;;;;5017267;28;20049;-74
2022/07/09 09:34:23;;;;;;;3.22;0.80;;;21.20;81.00;;;;;;5032227;28;20058;-73
2022/07/09 09:36:51;;;;;;;;;;;21.30;80.90;;;;;;5033861;28;20045;-74
2022/07/09 09:39:21;;;;;;;2.72;1.00;;;21.30;80.10;;;;;;5034674;28;19940;-74
2022/07/09 09:41:54;;;;;;;2.58;1.00;;;21.30;80.40;;;;;;5033366;28;20041;-74
2022/07/09 09:44:37;;;;;;;1.83;0.90;;;21.40;80.10;;;;;;5033774;28;20049;-74
2022/07/09 09:47:07;;;;;;;1.85;0.80;;;21.40;80.60;;;;;;5033434;28;20052;-74
2022/07/09 09:49:37;;;;;;;2.90;0.90;;;21.50;79.90;;;;;;5017066;28;20049;-74
2022/07/09 09:52:07;;;;;;;3.58;1.00;;;21.60;79.40;;;;;;5033410;28;20068;-73
2022/07/09 09:54:42;;;;;;;3.53;1.20;;;21.60;79.50;;;;;;5032515;28;20056;-74
2022/07/09 09:57:13;;;;;;;2.38;1.00;;;21.70;79.40;;;;;;5033407;28;20483;-74
2022/07/09 09:59:47;;;;;;;1.85;0.80;;;21.80;79.20;;;;;;5033474;28;20049;-74
2022/07/09 10:02:15;;;;;;;2.92;1.00;;;21.90;79.20;;;;;;5032348;28;20049;-74
2022/07/09 10:04:43;;;;;;;3.30;1.10;;;22.00;79.20;;;;;;5033783;28;20044;-74
2022/07/09 10:07:14;;;;;;;4.25;1.00;;;22.20;79.30;;;;;;5032359;28;20124;-74
2022/07/09 10:09:59;;;;;;;1.92;1.05;;;22.30;78.70;;;;;;5034630;28;20057;-74
2022/07/09 10:12:33;;;;;;;3.42;0.88;;;22.30;77.80;;;;;;5037634;28;20049;-74
2022/07/09 10:15:01;;;;;;;3.00;1.02;;;22.40;77.90;;;;;;5036893;28;20052;-74
2022/07/09 10:17:40;;;;;;;2.22;1.10;;;22.40;78.10;;;;;;5037346;28;20380;-74
2022/07/09 10:20:10;;;;;;;2.25;1.00;;;22.30;77.30;;;;;;5036127;28;20495;-74
2022/07/09 10:22:45;;;;;;;1.92;0.95;;;22.20;78.00;;;;;;5036686;28;20054;-74
2022/07/09 10:25:27;;;;;;;2.25;1.10;;;22.10;78.20;;;;;;5036807;28;20042;-74
2022/07/09 10:27:54;;;;;;;2.95;1.20;;;22.00;78.30;;;;;;5036617;28;20057;-74
2022/07/09 10:30:33;;;;;;;5.97;1.52;;;22.00;78.60;;;;;;5036851;28;20345;-74
2022/07/09 10:33:08;;;;;;;3.55;1.17;;;22.00;78.70;;;;;;5034415;28;20049;-74
2022/07/09 10:35:47;;;;;;;2.30;1.30;;;22.00;78.30;;;;;;5016565;28;20046;-74
2022/07/09 10:38:16;;;;;;;2.88;1.45;;;22.10;78.40;;;;;;4984574;28;20049;-74
2022/07/09 10:40:55;;;;;;;2.80;1.08;;;22.10;77.80;;;;;;4999275;28;20369;-74
2022/07/09 10:43:49;;;;;;;3.13;1.02;;;22.20;77.20;;;;;;5017462;28;20049;-74
2022/07/09 10:46:16;;;;;;;3.60;0.90;;;22.40;74.70;;;;;;5000533;28;20038;-74
2022/07/09 10:48:46;;;;;;;3.33;0.90;;;22.50;75.70;;;;;;5016554;28;20042;-74
2022/07/09 10:51:19;;;;;;;1.92;0.90;;;22.40;74.40;;;;;;5017519;28;20400;-74
2022/07/09 10:53:47;;;;;;;25.10;4.45;;;22.40;74.90;;;;;;4999671;28;20042;-74
2022/07/09 10:56:22;;;;;;;2.63;1.15;;;22.40;75.10;;;;;;5017313;28;20385;-74
2022/07/09 10:58:54;;;;;;;2.08;1.13;;;22.30;75.10;;;;;;5001112;28;20061;-74
2022/07/09 11:01:26;;;;;;;2.58;1.10;;;22.40;75.30;;;;;;5016093;28;20049;-74
2022/07/09 11:03:55;;;;;;;2.63;1.20;;;22.40;74.70;;;;;;4983982;28;20049;-74
2022/07/09 11:06:22;;;;;;;;;;;22.50;74.80;;;;;;5017482;28;20042;-74
2022/07/09 11:08:51;;;;;;;3.63;1.40;;;22.60;74.80;;;;;;4982527;28;20259;-74
2022/07/09 11:11:25;;;;;;;2.65;1.30;;;22.60;74.30;;;;;;5017171;28;20042;-74
2022/07/09 11:13:56;;;;;;;3.33;1.40;;;22.70;74.40;;;;;;5016128;28;20046;-74
2022/07/09 11:16:24;;;;;;;5.57;1.48;;;22.80;73.70;;;;;;4999677;28;20077;-74
2022/07/09 11:18:53;;;;;;;4.95;1.45;;;22.90;73.30;;;;;;4983430;28;20381;-74
2022/07/09 11:21:23;;;;;;;3.88;1.33;;;22.90;73.50;;;;;;5014669;28;20049;-74
2022/07/09 11:23:50;;;;;;;2.67;1.10;;;22.90;73.10;;;;;;4999836;28;20049;-74
2022/07/09 11:26:18;;;;;;;2.78;1.52;;;22.80;73.40;;;;;;5016718;28;20369;-74
2022/07/09 11:28:47;;;;;;;;;;;22.60;73.40;;;;;;5015927;28;20072;-74
2022/07/09 11:31:16;;;;;;;5.55;1.65;;;22.50;72.50;;;;;;5016568;28;19922;-74
2022/07/09 11:36:38;;;;;;;3.97;1.50;;;22.50;73.70;;;;;;5036560;28;20053;-74
2022/07/09 11:39:06;;;;;;;6.15;1.35;;;22.60;73.20;;;;;;5035628;28;20061;-74
2022/07/09 11:41:41;;;;;;;;;;;22.70;73.60;;;;;;5034533;28;20060;-74
2022/07/09 11:44:08;;;;;;;3.92;1.48;;;22.70;73.30;;;;;;5035144;28;19932;-74
2022/07/09 11:46:37;;;;;;;4.20;1.30;;;22.90;73.10;;;;;;5036029;28;20388;-74
2022/07/09 11:49:16;;;;;;;3.28;1.40;;;22.90;72.50;;;;;;5036381;28;20072;-74
2022/07/09 11:51:44;;;;;;;3.67;1.50;;;23.00;72.50;;;;;;5035895;28;20045;-74
2022/07/09 11:54:12;;;;;;;3.85;1.35;;;23.10;72.30;;;;;;5035265;28;20053;-74
2022/07/09 11:56:40;;;;;;;;;;;23.10;72.10;;;;;;5036712;28;20056;-73
2022/07/09 11:59:07;;;;;;;6.07;1.45;;;23.10;70.70;;;;;;5034930;28;19932;-74
2022/07/09 12:01:36;;;;;;;4.78;1.70;;;23.00;71.70;;;;;;5033773;28;20056;-74
2022/07/09 12:04:05;;;;;;;1.92;1.10;;;23.00;72.10;;;;;;5035169;28;20045;-74
2022/07/09 12:06:33;;;;;;;3.97;1.20;;;23.00;71.30;;;;;;5036328;28;20050;-74
2022/07/09 12:09:07;;;;;;;5.32;1.35;;;23.20;71.10;;;;;;5033705;28;20388;-74
2022/07/09 12:11:34;;;;;;;2.53;1.30;;;23.30;70.70;;;;;;5035758;28;20060;-74
2022/07/09 12:14:02;;;;;;;1.70;1.10;;;23.40;69.50;;;;;;5033826;28;20045;-74
2022/07/09 12:16:30;;;;;;;5.80;1.20;;;23.50;68.50;;;;;;5035476;28;20498;-74
2022/07/09 12:18:58;;;;;;;3.50;1.45;;;23.50;68.10;;;;;;5034609;28;20053;-74
2022/07/09 12:21:25;;;;;;;6.55;1.45;;;23.30;68.00;;;;;;5034291;28;20049;-74
2022/07/09 12:23:53;;;;;;;7.65;1.40;;;23.30;68.00;;;;;;5034877;28;20064;-74
2022/07/09 12:26:21;;;;;;;4.10;1.08;;;22.50;68.00;;;;;;5034464;28;20067;-74
2022/07/09 12:28:48;;;;;;;2.95;1.00;;;23.30;68.50;;;;;;5033360;28;20045;-74
2022/07/09 12:31:23;;;;;;;3.15;1.13;;;23.30;69.20;;;;;;5035239;28;20060;-74
2022/07/09 12:33:51;;;;;;;;;;;23.30;68.00;;;;;;5033376;28;20499;-74
2022/07/09 12:36:19;;;;;;;1.98;1.33;;;23.30;67.20;;;;;;5034329;28;19920;-74
2022/07/09 12:39:06;;;;;;;;;;;23.40;68.10;;;;;;5035886;28;20077;-74
2022/07/09 12:41:34;;;;;;;2.97;1.23;;;23.50;67.20;;;;;;5033966;28;19928;-74
2022/07/09 12:44:01;;;;;;;3.08;1.40;;;23.50;67.90;;;;;;5035499;28;20361;-74
2022/07/09 12:46:29;;;;;;;2.63;1.30;;;23.50;67.30;;;;;;5034980;28;20041;-75
2022/07/09 12:48:57;;;;;;;2.38;1.20;;;23.60;66.60;;;;;;5032901;28;20053;-74
2022/07/09 12:51:25;;;;;;;2.90;1.23;;;23.60;66.40;;;;;;5034254;28;20042;-74
2022/07/09 12:53:52;;;;;;;2.28;1.23;;;23.60;66.30;;;;;;5016567;28;20076;-74
2022/07/09 12:56:20;;;;;;;2.58;1.30;;;23.70;66.70;;;;;;5034162;28;20053;-74
2022/07/09 12:58:48;;;;;;;;;;;23.70;66.00;;;;;;5035586;28;20060;-74
2022/07/09 13:01:15;;;;;;;5.30;1.10;;;23.80;66.70;;;;;;5034191;28;19921;-74
2022/07/09 13:03:43;;;;;;;5.10;1.15;;;24.00;66.60;;;;;;5034987;28;20057;-74